sensor_id;sensor_type;location;lat;lon;timestamp;P1;durP1;ratioP1;P2;durP2;ratioP2
32138;SDS011;18644;48.700;9.210;2022-09-24T00:01:59;3.65;;;3.13;;
32138;SDS011;18644;48.700;9.210;2022-09-24T00:04:27;4.13;;;2.85;;
32138;SDS011;18644;48.700;9.210;2022-09-24T00:06:55;3.45;;;2.80;;
32138;SDS011;18644;48.700;9.210;2022-09-24T00:09:22;3.00;;;2.60;;
32138;SDS011;18644;48.700;9.210;2022-09-24T00:11:49;5.00;;;3.42;;
32138;SDS011;18644;48.700;9.210;2022-09-24T00:14:17;5.25;;;3.30;;
32138;SDS011;18644;48.700;9.210;2022-09-24T00:16:45;5.32;;;3.03;;
32138;SDS011;18644;48.700;9.210;2022-09-24T00:19:13;3.72;;;2.60;;
32138;SDS011;18644;48.700;9.210;2022-09-24T00:21:40;3.70;;;2.38;;
32138;SDS011;18644;48.700;9.210;2022-09-24T00:24:09;3.45;;;2.83;;
32138;SDS011;18644;48.700;9.210;2022-09-24T00:26:59;4.53;;;2.92;;
32138;SDS011;18644;48.700;9.210;2022-09-24T00:29:27;3.97;;;3.55;;
32138;SDS011;18644;48.700;9.210;2022-09-24T00:31:56;2.80;;;2.50;;
32138;SDS011;18644;48.700;9.210;2022-09-24T00:34:24;2.90;;;2.60;;
32138;SDS011;18644;48.700;9.210;2022-09-24T00:36:51;4.03;;;2.47;;
32138;SDS011;18644;48.700;9.210;2022-09-24T00:39:18;3.63;;;2.58;;
32138;SDS011;18644;48.700;9.210;2022-09-24T00:41:45;3.78;;;3.20;;
32138;SDS011;18644;48.700;9.210;2022-09-24T00:47:23;4.18;;;3.15;;
32138;SDS011;18644;48.700;9.210;2022-09-24T00:50:00;3.28;;;2.60;;
32138;SDS011;18644;48.700;9.210;2022-09-24T00:52:33;3.17;;;2.50;;
32138;SDS011;18644;48.700;9.210;2022-09-24T00:55:04;3.78;;;2.80;;
32138;SDS011;18644;48.700;9.210;2022-09-24T00:57:32;4.30;;;2.97;;
32138;SDS011;18644;48.700;9.210;2022-09-24T01:00:00;5.68;;;3.03;;
32138;SDS011;18644;48.700;9.210;2022-09-24T01:02:27;3.72;;;3.00;;
32138;SDS011;18644;48.700;9.210;2022-09-24T01:04:54;2.95;;;2.60;;
32138;SDS011;18644;48.700;9.210;2022-09-24T01:07:23;3.80;;;3.20;;
32138;SDS011;18644;48.700;9.210;2022-09-24T01:09:50;2.83;;;2.28;;
32138;SDS011;18644;48.700;9.210;2022-09-24T01:12:18;2.95;;;2.63;;
32138;SDS011;18644;48.700;9.210;2022-09-24T01:14:58;6.10;;;3.15;;
32138;SDS011;18644;48.700;9.210;2022-09-24T01:17:38;4.35;;;2.63;;
32138;SDS011;18644;48.700;9.210;2022-09-24T01:23:14;4.65;;;2.97;;
32138;SDS011;18644;48.700;9.210;2022-09-24T01:26:02;5.10;;;2.75;;
32138;SDS011;18644;48.700;9.210;2022-09-24T01:28:51;7.53;;;3.22;;
32138;SDS011;18644;48.700;9.210;2022-09-24T01:31:32;5.20;;;3.03;;
32138;SDS011;18644;48.700;9.210;2022-09-24T01:34:01;2.50;;;2.13;;
32138;SDS011;18644;48.700;9.210;2022-09-24T01:36:30;2.97;;;2.63;;
32138;SDS011;18644;48.700;9.210;2022-09-24T01:39:00;3.60;;;2.80;;
32138;SDS011;18644;48.700;9.210;2022-09-24T01:41:29;2.60;;;2.40;;
32138;SDS011;18644;48.700;9.210;2022-09-24T01:43:58;2.70;;;2.35;;
32138;SDS011;18644;48.700;9.210;2022-09-24T01:46:29;3.10;;;2.50;;
32138;SDS011;18644;48.700;9.210;2022-09-24T01:48:57;3.38;;;2.50;;
32138;SDS011;18644;48.700;9.210;2022-09-24T01:51:25;4.00;;;2.90;;
32138;SDS011;18644;48.700;9.210;2022-09-24T01:53:58;3.50;;;2.88;;
32138;SDS011;18644;48.700;9.210;2022-09-24T01:56:31;4.63;;;2.97;;
32138;SDS011;18644;48.700;9.210;2022-09-24T01:59:04;2.90;;;2.40;;
32138;SDS011;18644;48.700;9.210;2022-09-24T02:01:42;3.20;;;2.42;;
32138;SDS011;18644;48.700;9.210;2022-09-24T02:04:15;3.08;;;2.55;;
32138;SDS011;18644;48.700;9.210;2022-09-24T02:06:45;3.83;;;2.72;;
32138;SDS011;18644;48.700;9.210;2022-09-24T02:09:31;2.25;;;2.00;;
32138;SDS011;18644;48.700;9.210;2022-09-24T02:12:01;4.78;;;2.70;;
32138;SDS011;18644;48.700;9.210;2022-09-24T02:14:32;2.95;;;2.30;;
32138;SDS011;18644;48.700;9.210;2022-09-24T02:17:06;4.25;;;2.88;;
32138;SDS011;18644;48.700;9.210;2022-09-24T02:19:35;3.60;;;2.90;;
32138;SDS011;18644;48.700;9.210;2022-09-24T02:22:05;7.75;;;3.17;;
32138;SDS011;18644;48.700;9.210;2022-09-24T02:24:35;4.18;;;2.80;;
32138;SDS011;18644;48.700;9.210;2022-09-24T02:27:09;4.13;;;2.88;;
32138;SDS011;18644;48.700;9.210;2022-09-24T02:29:36;3.47;;;3.08;;
32138;SDS011;18644;48.700;9.210;2022-09-24T02:32:03;3.72;;;2.90;;
32138;SDS011;18644;48.700;9.210;2022-09-24T02:34:35;3.30;;;3.00;;
32138;SDS011;18644;48.700;9.210;2022-09-24T02:37:05;5.78;;;2.88;;
32138;SDS011;18644;48.700;9.210;2022-09-24T02:39:35;4.85;;;2.42;;
32138;SDS011;18644;48.700;9.210;2022-09-24T02:42:02;4.90;;;3.28;;
32138;SDS011;18644;48.700;9.210;2022-09-24T02:44:31;8.73;;;3.17;;
32138;SDS011;18644;48.700;9.210;2022-09-24T02:46:58;3.00;;;2.70;;
32138;SDS011;18644;48.700;9.210;2022-09-24T02:49:26;9.38;;;3.53;;
32138;SDS011;18644;48.700;9.210;2022-09-24T02:51:53;3.17;;;2.47;;
32138;SDS011;18644;48.700;9.210;2022-09-24T02:54:20;4.35;;;2.67;;
32138;SDS011;18644;48.700;9.210;2022-09-24T02:56:48;3.38;;;3.00;;
32138;SDS011;18644;48.700;9.210;2022-09-24T02:59:14;5.72;;;3.08;;
32138;SDS011;18644;48.700;9.210;2022-09-24T03:01:43;3.50;;;2.55;;
32138;SDS011;18644;48.700;9.210;2022-09-24T03:04:10;3.30;;;3.00;;
32138;SDS011;18644;48.700;9.210;2022-09-24T03:06:39;2.90;;;2.60;;
32138;SDS011;18644;48.700;9.210;2022-09-24T03:09:06;3.75;;;2.35;;
32138;SDS011;18644;48.700;9.210;2022-09-24T03:11:32;2.63;;;2.42;;
32138;SDS011;18644;48.700;9.210;2022-09-24T03:13:59;2.95;;;2.55;;
32138;SDS011;18644;48.700;9.210;2022-09-24T03:16:26;4.93;;;3.30;;
32138;SDS011;18644;48.700;9.210;2022-09-24T03:18:53;3.13;;;2.80;;
32138;SDS011;18644;48.700;9.210;2022-09-24T03:21:20;5.88;;;3.15;;
32138;SDS011;18644;48.700;9.210;2022-09-24T03:23:49;3.58;;;3.00;;
32138;SDS011;18644;48.700;9.210;2022-09-24T03:26:16;4.80;;;2.80;;
32138;SDS011;18644;48.700;9.210;2022-09-24T03:28:43;3.38;;;2.67;;
32138;SDS011;18644;48.700;9.210;2022-09-24T03:31:10;3.40;;;2.83;;
32138;SDS011;18644;48.700;9.210;2022-09-24T03:33:36;4.07;;;2.70;;
32138;SDS011;18644;48.700;9.210;2022-09-24T03:36:06;3.83;;;2.92;;
32138;SDS011;18644;48.700;9.210;2022-09-24T03:38:35;4.75;;;3.00;;
32138;SDS011;18644;48.700;9.210;2022-09-24T03:41:06;4.70;;;3.33;;
32138;SDS011;18644;48.700;9.210;2022-09-24T03:43:34;3.42;;;2.95;;
32138;SDS011;18644;48.700;9.210;2022-09-24T03:46:02;3.08;;;2.65;;
32138;SDS011;18644;48.700;9.210;2022-09-24T03:48:31;3.17;;;2.88;;
32138;SDS011;18644;48.700;9.210;2022-09-24T03:51:01;4.10;;;2.95;;
32138;SDS011;18644;48.700;9.210;2022-09-24T03:53:29;3.33;;;2.90;;
32138;SDS011;18644;48.700;9.210;2022-09-24T03:55:57;4.72;;;3.45;;
32138;SDS011;18644;48.700;9.210;2022-09-24T03:58:28;5.07;;;3.40;;
32138;SDS011;18644;48.700;9.210;2022-09-24T04:00:56;4.45;;;3.20;;
32138;SDS011;18644;48.700;9.210;2022-09-24T04:03:23;3.55;;;3.10;;
32138;SDS011;18644;48.700;9.210;2022-09-24T04:05:50;3.88;;;3.42;;
32138;SDS011;18644;48.700;9.210;2022-09-24T04:08:17;3.70;;;2.90;;
32138;SDS011;18644;48.700;9.210;2022-09-24T04:10:45;5.38;;;3.20;;
32138;SDS011;18644;48.700;9.210;2022-09-24T04:13:12;4.93;;;3.35;;
32138;SDS011;18644;48.700;9.210;2022-09-24T04:15:41;3.53;;;3.20;;
32138;SDS011;18644;48.700;9.210;2022-09-24T04:18:08;4.35;;;3.40;;
32138;SDS011;18644;48.700;9.210;2022-09-24T04:20:35;4.57;;;3.50;;
32138;SDS011;18644;48.700;9.210;2022-09-24T04:23:02;6.78;;;3.30;;
32138;SDS011;18644;48.700;9.210;2022-09-24T04:25:30;7.47;;;3.80;;
32138;SDS011;18644;48.700;9.210;2022-09-24T04:27:58;4.63;;;3.33;;
32138;SDS011;18644;48.700;9.210;2022-09-24T04:30:28;3.70;;;3.22;;
32138;SDS011;18644;48.700;9.210;2022-09-24T04:32:57;6.70;;;2.92;;
32138;SDS011;18644;48.700;9.210;2022-09-24T04:35:27;4.45;;;2.80;;
32138;SDS011;18644;48.700;9.210;2022-09-24T04:37:56;3.47;;;2.95;;
32138;SDS011;18644;48.700;9.210;2022-09-24T04:40:24;4.00;;;3.15;;
32138;SDS011;18644;48.700;9.210;2022-09-24T04:42:52;4.28;;;3.40;;
32138;SDS011;18644;48.700;9.210;2022-09-24T04:45:19;3.45;;;3.15;;
32138;SDS011;18644;48.700;9.210;2022-09-24T04:47:49;4.63;;;3.60;;
32138;SDS011;18644;48.700;9.210;2022-09-24T04:50:19;13.38;;;3.67;;
32138;SDS011;18644;48.700;9.210;2022-09-24T04:52:46;4.63;;;3.58;;
32138;SDS011;18644;48.700;9.210;2022-09-24T04:55:13;3.92;;;3.53;;
32138;SDS011;18644;48.700;9.210;2022-09-24T04:57:40;4.43;;;3.63;;
32138;SDS011;18644;48.700;9.210;2022-09-24T05:00:10;3.95;;;3.50;;
32138;SDS011;18644;48.700;9.210;2022-09-24T05:02:41;5.03;;;3.65;;
32138;SDS011;18644;48.700;9.210;2022-09-24T05:05:09;4.40;;;3.78;;
32138;SDS011;18644;48.700;9.210;2022-09-24T05:07:37;4.20;;;3.17;;
32138;SDS011;18644;48.700;9.210;2022-09-24T05:10:05;4.35;;;3.08;;
32138;SDS011;18644;48.700;9.210;2022-09-24T05:12:33;5.85;;;3.47;;
32138;SDS011;18644;48.700;9.210;2022-09-24T05:15:00;4.88;;;3.45;;
32138;SDS011;18644;48.700;9.210;2022-09-24T05:17:27;4.53;;;3.30;;
32138;SDS011;18644;48.700;9.210;2022-09-24T05:19:54;3.90;;;3.35;;
32138;SDS011;18644;48.700;9.210;2022-09-24T05:22:22;4.72;;;3.70;;
32138;SDS011;18644;48.700;9.210;2022-09-24T05:24:52;5.47;;;4.13;;
32138;SDS011;18644;48.700;9.210;2022-09-24T05:27:19;7.20;;;3.80;;
32138;SDS011;18644;48.700;9.210;2022-09-24T05:29:47;4.63;;;3.65;;
32138;SDS011;18644;48.700;9.210;2022-09-24T05:32:15;10.68;;;3.83;;
32138;SDS011;18644;48.700;9.210;2022-09-24T05:34:44;4.88;;;3.90;;
32138;SDS011;18644;48.700;9.210;2022-09-24T05:37:11;4.55;;;3.90;;
32138;SDS011;18644;48.700;9.210;2022-09-24T05:39:40;5.57;;;4.18;;
32138;SDS011;18644;48.700;9.210;2022-09-24T05:42:09;8.02;;;3.83;;
32138;SDS011;18644;48.700;9.210;2022-09-24T05:44:38;5.70;;;4.18;;
32138;SDS011;18644;48.700;9.210;2022-09-24T05:47:04;4.93;;;3.70;;
32138;SDS011;18644;48.700;9.210;2022-09-24T05:49:31;5.68;;;4.50;;
32138;SDS011;18644;48.700;9.210;2022-09-24T05:51:59;4.20;;;3.80;;
32138;SDS011;18644;48.700;9.210;2022-09-24T05:54:26;4.28;;;3.83;;
32138;SDS011;18644;48.700;9.210;2022-09-24T05:56:54;7.97;;;4.00;;
32138;SDS011;18644;48.700;9.210;2022-09-24T05:59:22;4.78;;;3.88;;
32138;SDS011;18644;48.700;9.210;2022-09-24T06:01:49;6.13;;;4.35;;
32138;SDS011;18644;48.700;9.210;2022-09-24T06:04:16;6.65;;;4.85;;
32138;SDS011;18644;48.700;9.210;2022-09-24T06:06:43;8.80;;;4.97;;
32138;SDS011;18644;48.700;9.210;2022-09-24T06:09:09;6.38;;;5.20;;
32138;SDS011;18644;48.700;9.210;2022-09-24T06:11:37;4.85;;;4.07;;
32138;SDS011;18644;48.700;9.210;2022-09-24T06:14:03;5.65;;;4.10;;
32138;SDS011;18644;48.700;9.210;2022-09-24T06:16:32;4.05;;;3.38;;
32138;SDS011;18644;48.700;9.210;2022-09-24T06:18:59;4.38;;;3.58;;
32138;SDS011;18644;48.700;9.210;2022-09-24T06:21:26;4.20;;;3.53;;
32138;SDS011;18644;48.700;9.210;2022-09-24T06:23:53;5.57;;;4.20;;
32138;SDS011;18644;48.700;9.210;2022-09-24T06:26:20;8.30;;;4.22;;
32138;SDS011;18644;48.700;9.210;2022-09-24T06:28:47;8.95;;;4.55;;
32138;SDS011;18644;48.700;9.210;2022-09-24T06:31:14;5.35;;;4.20;;
32138;SDS011;18644;48.700;9.210;2022-09-24T06:33:42;6.38;;;4.60;;
32138;SDS011;18644;48.700;9.210;2022-09-24T06:36:09;5.25;;;3.92;;
32138;SDS011;18644;48.700;9.210;2022-09-24T06:38:36;5.03;;;3.83;;
32138;SDS011;18644;48.700;9.210;2022-09-24T06:41:05;4.97;;;4.05;;
32138;SDS011;18644;48.700;9.210;2022-09-24T06:43:32;4.72;;;3.88;;
32138;SDS011;18644;48.700;9.210;2022-09-24T06:46:00;8.25;;;5.03;;
32138;SDS011;18644;48.700;9.210;2022-09-24T06:48:28;6.18;;;4.28;;
32138;SDS011;18644;48.700;9.210;2022-09-24T06:50:58;4.22;;;3.67;;
32138;SDS011;18644;48.700;9.210;2022-09-24T06:53:25;4.32;;;3.55;;
32138;SDS011;18644;48.700;9.210;2022-09-24T06:55:54;4.97;;;4.10;;
32138;SDS011;18644;48.700;9.210;2022-09-24T06:58:23;4.70;;;3.72;;
32138;SDS011;18644;48.700;9.210;2022-09-24T07:00:52;6.55;;;3.92;;
32138;SDS011;18644;48.700;9.210;2022-09-24T07:03:22;6.50;;;3.80;;
32138;SDS011;18644;48.700;9.210;2022-09-24T07:05:51;4.57;;;3.95;;
32138;SDS011;18644;48.700;9.210;2022-09-24T07:08:19;6.03;;;4.13;;
32138;SDS011;18644;48.700;9.210;2022-09-24T07:10:47;4.57;;;3.83;;
32138;SDS011;18644;48.700;9.210;2022-09-24T07:13:16;4.80;;;4.03;;
32138;SDS011;18644;48.700;9.210;2022-09-24T07:15:45;6.22;;;4.50;;
32138;SDS011;18644;48.700;9.210;2022-09-24T07:18:14;7.10;;;4.85;;
32138;SDS011;18644;48.700;9.210;2022-09-24T07:20:41;8.18;;;5.65;;
32138;SDS011;18644;48.700;9.210;2022-09-24T07:23:09;5.82;;;4.38;;
32138;SDS011;18644;48.700;9.210;2022-09-24T07:25:38;4.60;;;4.03;;
32138;SDS011;18644;48.700;9.210;2022-09-24T07:28:06;6.85;;;4.35;;
32138;SDS011;18644;48.700;9.210;2022-09-24T07:30:36;5.03;;;4.15;;
32138;SDS011;18644;48.700;9.210;2022-09-24T07:33:04;5.00;;;4.05;;
32138;SDS011;18644;48.700;9.210;2022-09-24T07:35:32;4.97;;;4.15;;
32138;SDS011;18644;48.700;9.210;2022-09-24T07:38:03;7.22;;;4.47;;
32138;SDS011;18644;48.700;9.210;2022-09-24T07:40:32;12.50;;;4.47;;
32138;SDS011;18644;48.700;9.210;2022-09-24T07:43:00;7.57;;;5.13;;
32138;SDS011;18644;48.700;9.210;2022-09-24T07:45:28;10.00;;;5.55;;
32138;SDS011;18644;48.700;9.210;2022-09-24T07:47:56;19.60;;;6.00;;
32138;SDS011;18644;48.700;9.210;2022-09-24T07:50:24;7.22;;;5.05;;
32138;SDS011;18644;48.700;9.210;2022-09-24T07:52:52;9.07;;;5.18;;
32138;SDS011;18644;48.700;9.210;2022-09-24T07:55:19;7.78;;;4.47;;
32138;SDS011;18644;48.700;9.210;2022-09-24T07:57:46;8.98;;;5.07;;
32138;SDS011;18644;48.700;9.210;2022-09-24T08:00:15;5.28;;;4.38;;
32138;SDS011;18644;48.700;9.210;2022-09-24T08:02:43;6.07;;;4.68;;
32138;SDS011;18644;48.700;9.210;2022-09-24T08:05:10;7.25;;;4.35;;
32138;SDS011;18644;48.700;9.210;2022-09-24T08:07:38;5.97;;;4.00;;
32138;SDS011;18644;48.700;9.210;2022-09-24T08:10:05;8.32;;;4.13;;
32138;SDS011;18644;48.700;9.210;2022-09-24T08:12:32;4.50;;;3.50;;
32138;SDS011;18644;48.700;9.210;2022-09-24T08:15:00;5.63;;;3.85;;
32138;SDS011;18644;48.700;9.210;2022-09-24T08:17:28;3.78;;;3.40;;
32138;SDS011;18644;48.700;9.210;2022-09-24T08:19:56;5.30;;;4.05;;
32138;SDS011;18644;48.700;9.210;2022-09-24T08:22:23;5.40;;;3.97;;
32138;SDS011;18644;48.700;9.210;2022-09-24T08:24:50;9.27;;;3.83;;
32138;SDS011;18644;48.700;9.210;2022-09-24T08:27:17;5.45;;;4.25;;
32138;SDS011;18644;48.700;9.210;2022-09-24T08:29:44;6.47;;;4.07;;
32138;SDS011;18644;48.700;9.210;2022-09-24T08:32:12;4.72;;;3.95;;
32138;SDS011;18644;48.700;9.210;2022-09-24T08:34:40;5.50;;;4.22;;
32138;SDS011;18644;48.700;9.210;2022-09-24T08:37:07;5.47;;;4.13;;
32138;SDS011;18644;48.700;9.210;2022-09-24T08:39:34;10.73;;;4.53;;
32138;SDS011;18644;48.700;9.210;2022-09-24T08:42:01;4.70;;;3.53;;
32138;SDS011;18644;48.700;9.210;2022-09-24T08:44:35;5.57;;;3.75;;
32138;SDS011;18644;48.700;9.210;2022-09-24T08:47:28;6.00;;;3.85;;
32138;SDS011;18644;48.700;9.210;2022-09-24T08:50:05;8.38;;;3.80;;
32138;SDS011;18644;48.700;9.210;2022-09-24T08:52:40;5.70;;;4.75;;
32138;SDS011;18644;48.700;9.210;2022-09-24T08:55:37;7.97;;;4.03;;
32138;SDS011;18644;48.700;9.210;2022-09-24T08:58:14;2.97;;;2.70;;
32138;SDS011;18644;48.700;9.210;2022-09-24T09:00:57;4.82;;;2.30;;
32138;SDS011;18644;48.700;9.210;2022-09-24T09:03:34;3.67;;;1.88;;
32138;SDS011;18644;48.700;9.210;2022-09-24T09:06:11;2.20;;;2.00;;
32138;SDS011;18644;48.700;9.210;2022-09-24T09:08:58;2.55;;;1.75;;
32138;SDS011;18644;48.700;9.210;2022-09-24T09:11:36;2.42;;;1.90;;
32138;SDS011;18644;48.700;9.210;2022-09-24T09:14:06;2.72;;;2.03;;
32138;SDS011;18644;48.700;9.210;2022-09-24T09:16:40;2.75;;;1.80;;
32138;SDS011;18644;48.700;9.210;2022-09-24T09:19:14;2.20;;;1.85;;
32138;SDS011;18644;48.700;9.210;2022-09-24T09:21:44;5.10;;;1.80;;
32138;SDS011;18644;48.700;9.210;2022-09-24T09:24:17;2.72;;;1.58;;
32138;SDS011;18644;48.700;9.210;2022-09-24T09:26:47;1.67;;;1.50;;
32138;SDS011;18644;48.700;9.210;2022-09-24T09:29:18;2.08;;;1.85;;
32138;SDS011;18644;48.700;9.210;2022-09-24T09:31:48;3.47;;;1.85;;
32138;SDS011;18644;48.700;9.210;2022-09-24T09:37:21;1.90;;;1.55;;
32138;SDS011;18644;48.700;9.210;2022-09-24T09:39:57;2.63;;;1.80;;
32138;SDS011;18644;48.700;9.210;2022-09-24T09:42:38;1.95;;;1.48;;
32138;SDS011;18644;48.700;9.210;2022-09-24T09:45:12;2.10;;;1.30;;
32138;SDS011;18644;48.700;9.210;2022-09-24T09:47:49;1.65;;;1.55;;
32138;SDS011;18644;48.700;9.210;2022-09-24T09:50:23;1.67;;;1.30;;
32138;SDS011;18644;48.700;9.210;2022-09-24T09:52:55;2.13;;;1.70;;
32138;SDS011;18644;48.700;9.210;2022-09-24T09:55:23;1.63;;;1.35;;
32138;SDS011;18644;48.700;9.210;2022-09-24T09:58:07;1.83;;;1.45;;
32138;SDS011;18644;48.700;9.210;2022-09-24T10:00:40;1.75;;;1.60;;
32138;SDS011;18644;48.700;9.210;2022-09-24T10:03:19;2.72;;;1.70;;
32138;SDS011;18644;48.700;9.210;2022-09-24T10:05:53;1.70;;;1.60;;
32138;SDS011;18644;48.700;9.210;2022-09-24T10:08:23;1.55;;;1.45;;
32138;SDS011;18644;48.700;9.210;2022-09-24T10:10:51;2.10;;;1.38;;
32138;SDS011;18644;48.700;9.210;2022-09-24T10:13:20;2.28;;;1.52;;
32138;SDS011;18644;48.700;9.210;2022-09-24T10:15:48;1.80;;;1.70;;
32138;SDS011;18644;48.700;9.210;2022-09-24T10:18:19;2.38;;;1.50;;
32138;SDS011;18644;48.700;9.210;2022-09-24T10:20:54;1.45;;;1.35;;
32138;SDS011;18644;48.700;9.210;2022-09-24T10:23:24;2.53;;;1.95;;
32138;SDS011;18644;48.700;9.210;2022-09-24T10:25:59;1.85;;;1.75;;
32138;SDS011;18644;48.700;9.210;2022-09-24T10:28:28;2.33;;;1.88;;
32138;SDS011;18644;48.700;9.210;2022-09-24T10:31:15;1.67;;;1.50;;
32138;SDS011;18644;48.700;9.210;2022-09-24T10:33:46;2.75;;;1.73;;
32138;SDS011;18644;48.700;9.210;2022-09-24T10:36:16;1.58;;;1.40;;
32138;SDS011;18644;48.700;9.210;2022-09-24T10:38:48;1.30;;;1.10;;
32138;SDS011;18644;48.700;9.210;2022-09-24T10:41:28;1.70;;;1.40;;
32138;SDS011;18644;48.700;9.210;2022-09-24T10:43:56;2.05;;;1.52;;
32138;SDS011;18644;48.700;9.210;2022-09-24T10:46:34;3.13;;;1.67;;
32138;SDS011;18644;48.700;9.210;2022-09-24T10:49:17;2.15;;;1.70;;
32138;SDS011;18644;48.700;9.210;2022-09-24T10:52:06;1.40;;;1.27;;
32138;SDS011;18644;48.700;9.210;2022-09-24T10:54:47;1.42;;;1.17;;
32138;SDS011;18644;48.700;9.210;2022-09-24T10:57:24;1.75;;;1.23;;
32138;SDS011;18644;48.700;9.210;2022-09-24T11:00:00;1.45;;;1.35;;
32138;SDS011;18644;48.700;9.210;2022-09-24T11:02:41;1.75;;;1.55;;
32138;SDS011;18644;48.700;9.210;2022-09-24T11:05:49;1.67;;;1.48;;
32138;SDS011;18644;48.700;9.210;2022-09-24T11:08:21;1.37;;;1.20;;
32138;SDS011;18644;48.700;9.210;2022-09-24T11:11:08;5.25;;;1.45;;
32138;SDS011;18644;48.700;9.210;2022-09-24T11:13:54;2.50;;;1.80;;
32138;SDS011;18644;48.700;9.210;2022-09-24T11:19:32;1.70;;;1.60;;
32138;SDS011;18644;48.700;9.210;2022-09-24T11:22:16;2.22;;;1.67;;
32138;SDS011;18644;48.700;9.210;2022-09-24T11:25:02;2.10;;;1.88;;
32138;SDS011;18644;48.700;9.210;2022-09-24T11:27:53;2.03;;;1.73;;
32138;SDS011;18644;48.700;9.210;2022-09-24T11:30:31;1.88;;;1.30;;
32138;SDS011;18644;48.700;9.210;2022-09-24T11:33:15;3.47;;;1.60;;
32138;SDS011;18644;48.700;9.210;2022-09-24T11:35:58;2.80;;;1.97;;
32138;SDS011;18644;48.700;9.210;2022-09-24T11:38:58;1.70;;;1.50;;
32138;SDS011;18644;48.700;9.210;2022-09-24T11:41:40;1.77;;;1.55;;
32138;SDS011;18644;48.700;9.210;2022-09-24T11:44:20;3.28;;;1.90;;
32138;SDS011;18644;48.700;9.210;2022-09-24T11:47:19;2.00;;;1.67;;
32138;SDS011;18644;48.700;9.210;2022-09-24T11:50:12;1.55;;;1.45;;
32138;SDS011;18644;48.700;9.210;2022-09-24T11:52:49;1.70;;;1.45;;
32138;SDS011;18644;48.700;9.210;2022-09-24T11:55:20;2.05;;;1.48;;
32138;SDS011;18644;48.700;9.210;2022-09-24T11:57:57;2.63;;;1.75;;
32138;SDS011;18644;48.700;9.210;2022-09-24T12:00:33;1.48;;;1.38;;
32138;SDS011;18644;48.700;9.210;2022-09-24T12:03:05;2.55;;;1.65;;
32138;SDS011;18644;48.700;9.210;2022-09-24T12:05:41;2.20;;;1.52;;
32138;SDS011;18644;48.700;9.210;2022-09-24T12:08:14;1.60;;;1.50;;
32138;SDS011;18644;48.700;9.210;2022-09-24T12:10:44;2.67;;;1.95;;
32138;SDS011;18644;48.700;9.210;2022-09-24T12:13:17;2.08;;;1.88;;
32138;SDS011;18644;48.700;9.210;2022-09-24T12:18:19;1.52;;;1.42;;
32138;SDS011;18644;48.700;9.210;2022-09-24T12:20:51;1.92;;;1.60;;
32138;SDS011;18644;48.700;9.210;2022-09-24T12:23:23;1.77;;;1.67;;
32138;SDS011;18644;48.700;9.210;2022-09-24T12:28:22;1.35;;;1.23;;
32138;SDS011;18644;48.700;9.210;2022-09-24T12:31:11;1.35;;;1.25;;
32138;SDS011;18644;48.700;9.210;2022-09-24T12:34:02;2.03;;;1.55;;
32138;SDS011;18644;48.700;9.210;2022-09-24T12:36:39;3.17;;;2.15;;
32138;SDS011;18644;48.700;9.210;2022-09-24T12:39:19;2.53;;;1.70;;
32138;SDS011;18644;48.700;9.210;2022-09-24T12:41:54;1.88;;;1.70;;
32138;SDS011;18644;48.700;9.210;2022-09-24T12:44:28;1.63;;;1.45;;
32138;SDS011;18644;48.700;9.210;2022-09-24T12:47:03;2.20;;;1.58;;
32138;SDS011;18644;48.700;9.210;2022-09-24T12:49:31;2.65;;;1.90;;
32138;SDS011;18644;48.700;9.210;2022-09-24T12:52:02;1.65;;;1.55;;
32138;SDS011;18644;48.700;9.210;2022-09-24T12:54:41;1.98;;;1.63;;
32138;SDS011;18644;48.700;9.210;2022-09-24T12:57:11;3.00;;;1.65;;
32138;SDS011;18644;48.700;9.210;2022-09-24T12:59:45;2.45;;;1.67;;
32138;SDS011;18644;48.700;9.210;2022-09-24T13:02:17;3.85;;;1.95;;
32138;SDS011;18644;48.700;9.210;2022-09-24T13:05:02;2.15;;;1.80;;
32138;SDS011;18644;48.700;9.210;2022-09-24T13:07:41;1.80;;;1.70;;
32138;SDS011;18644;48.700;9.210;2022-09-24T13:10:21;2.20;;;1.77;;
32138;SDS011;18644;48.700;9.210;2022-09-24T13:12:51;3.90;;;2.28;;
32138;SDS011;18644;48.700;9.210;2022-09-24T13:15:22;2.72;;;2.13;;
32138;SDS011;18644;48.700;9.210;2022-09-24T13:18:00;2.90;;;2.33;;
32138;SDS011;18644;48.700;9.210;2022-09-24T13:20:31;2.88;;;1.98;;
32138;SDS011;18644;48.700;9.210;2022-09-24T13:23:10;3.55;;;2.20;;
32138;SDS011;18644;48.700;9.210;2022-09-24T13:25:39;2.35;;;1.90;;
32138;SDS011;18644;48.700;9.210;2022-09-24T13:28:18;2.13;;;1.90;;
32138;SDS011;18644;48.700;9.210;2022-09-24T13:30:48;3.30;;;1.98;;
32138;SDS011;18644;48.700;9.210;2022-09-24T13:33:20;2.35;;;2.15;;
32138;SDS011;18644;48.700;9.210;2022-09-24T13:36:09;2.30;;;2.03;;
32138;SDS011;18644;48.700;9.210;2022-09-24T13:38:41;3.10;;;2.13;;
32138;SDS011;18644;48.700;9.210;2022-09-24T13:41:19;2.40;;;2.05;;
32138;SDS011;18644;48.700;9.210;2022-09-24T13:43:55;2.67;;;2.15;;
32138;SDS011;18644;48.700;9.210;2022-09-24T13:46:27;2.10;;;1.80;;
32138;SDS011;18644;48.700;9.210;2022-09-24T13:48:59;2.67;;;1.73;;
32138;SDS011;18644;48.700;9.210;2022-09-24T13:51:30;3.13;;;2.70;;
32138;SDS011;18644;48.700;9.210;2022-09-24T13:54:02;2.90;;;2.22;;
32138;SDS011;18644;48.700;9.210;2022-09-24T13:56:37;3.33;;;2.60;;
32138;SDS011;18644;48.700;9.210;2022-09-24T13:59:05;3.40;;;2.63;;
32138;SDS011;18644;48.700;9.210;2022-09-24T14:01:38;2.67;;;2.45;;
32138;SDS011;18644;48.700;9.210;2022-09-24T14:04:16;4.88;;;2.35;;
32138;SDS011;18644;48.700;9.210;2022-09-24T14:06:46;2.55;;;2.05;;
32138;SDS011;18644;48.700;9.210;2022-09-24T14:09:23;3.85;;;2.85;;
32138;SDS011;18644;48.700;9.210;2022-09-24T14:11:54;2.83;;;1.90;;
32138;SDS011;18644;48.700;9.210;2022-09-24T14:14:23;3.10;;;2.25;;
32138;SDS011;18644;48.700;9.210;2022-09-24T14:16:53;2.92;;;1.70;;
32138;SDS011;18644;48.700;9.210;2022-09-24T14:19:32;3.00;;;1.83;;
32138;SDS011;18644;48.700;9.210;2022-09-24T14:22:00;2.33;;;2.10;;
32138;SDS011;18644;48.700;9.210;2022-09-24T14:24:30;2.53;;;1.88;;
32138;SDS011;18644;48.700;9.210;2022-09-24T14:27:00;2.40;;;1.70;;
32138;SDS011;18644;48.700;9.210;2022-09-24T14:29:32;2.05;;;1.85;;
32138;SDS011;18644;48.700;9.210;2022-09-24T14:32:05;2.58;;;1.85;;
32138;SDS011;18644;48.700;9.210;2022-09-24T14:34:46;2.30;;;2.10;;
32138;SDS011;18644;48.700;9.210;2022-09-24T14:37:19;2.47;;;1.70;;
32138;SDS011;18644;48.700;9.210;2022-09-24T14:39:49;3.53;;;2.13;;
32138;SDS011;18644;48.700;9.210;2022-09-24T14:42:30;2.15;;;1.77;;
32138;SDS011;18644;48.700;9.210;2022-09-24T14:45:02;2.60;;;1.92;;
32138;SDS011;18644;48.700;9.210;2022-09-24T14:47:32;4.05;;;2.15;;
32138;SDS011;18644;48.700;9.210;2022-09-24T14:50:02;5.38;;;2.00;;
32138;SDS011;18644;48.700;9.210;2022-09-24T14:52:52;2.00;;;1.77;;
32138;SDS011;18644;48.700;9.210;2022-09-24T14:55:24;2.50;;;1.75;;
32138;SDS011;18644;48.700;9.210;2022-09-24T14:58:02;2.35;;;1.80;;
32138;SDS011;18644;48.700;9.210;2022-09-24T15:00:29;2.50;;;1.80;;
32138;SDS011;18644;48.700;9.210;2022-09-24T15:03:02;3.30;;;1.75;;
32138;SDS011;18644;48.700;9.210;2022-09-24T15:05:35;2.05;;;1.73;;
32138;SDS011;18644;48.700;9.210;2022-09-24T15:08:08;1.60;;;1.45;;
32138;SDS011;18644;48.700;9.210;2022-09-24T15:10:50;1.63;;;1.52;;
32138;SDS011;18644;48.700;9.210;2022-09-24T15:13:20;2.13;;;1.88;;
32138;SDS011;18644;48.700;9.210;2022-09-24T15:15:59;2.20;;;1.63;;
32138;SDS011;18644;48.700;9.210;2022-09-24T15:18:31;1.90;;;1.77;;
32138;SDS011;18644;48.700;9.210;2022-09-24T15:21:01;1.85;;;1.35;;
32138;SDS011;18644;48.700;9.210;2022-09-24T15:23:32;1.80;;;1.65;;
32138;SDS011;18644;48.700;9.210;2022-09-24T15:25:59;2.05;;;1.60;;
32138;SDS011;18644;48.700;9.210;2022-09-24T15:28:27;3.10;;;2.08;;
32138;SDS011;18644;48.700;9.210;2022-09-24T15:30:54;1.92;;;1.75;;
32138;SDS011;18644;48.700;9.210;2022-09-24T15:33:21;3.33;;;2.10;;